createdAt,value
2022-12-16T00:01:24.291Z,30.97
2022-12-16T00:03:55.036Z,30.40
2022-12-16T00:06:23.055Z,30.33
2022-12-16T00:08:49.504Z,31.83
2022-12-16T00:11:15.986Z,31.60
2022-12-16T00:13:42.470Z,31.93
2022-12-16T00:16:13.931Z,32.63
2022-12-16T00:18:41.116Z,31.73
2022-12-16T00:21:08.402Z,32.77
2022-12-16T00:23:36.612Z,33.17
2022-12-16T00:26:04.030Z,33.03
2022-12-16T00:28:31.046Z,32.47
2022-12-16T00:30:57.738Z,33.40
2022-12-16T00:33:26.173Z,33.67
2022-12-16T00:35:53.568Z,31.67
2022-12-16T00:38:22.389Z,29.33
2022-12-16T00:40:48.828Z,32.33
2022-12-16T00:43:15.538Z,33.17
2022-12-16T00:45:42.003Z,31.00
2022-12-16T00:48:08.619Z,30.57
2022-12-16T00:50:35.968Z,29.93
2022-12-16T00:53:02.870Z,31.30
2022-12-16T00:55:29.432Z,29.30
2022-12-16T00:57:55.856Z,30.93
2022-12-16T01:00:23.626Z,27.93
2022-12-16T01:02:51.109Z,29.33
2022-12-16T01:05:20.903Z,28.73
2022-12-16T01:07:48.330Z,28.03
2022-12-16T01:10:15.195Z,29.97
2022-12-16T01:12:41.650Z,28.97
2022-12-16T01:15:09.229Z,29.40
2022-12-16T01:17:35.712Z,29.93
2022-12-16T01:20:02.786Z,28.87
2022-12-16T01:22:32.770Z,28.20
2022-12-16T01:24:59.938Z,28.67
2022-12-16T01:27:27.210Z,27.80
2022-12-16T01:29:53.669Z,29.77
2022-12-16T01:32:22.170Z,28.37
2022-12-16T01:34:55.121Z,28.40
2022-12-16T01:37:23.556Z,28.10
2022-12-16T01:39:50.482Z,27.57
2022-12-16T01:42:19.853Z,28.20
2022-12-16T01:44:48.440Z,28.27
2022-12-16T01:47:20.804Z,28.73
2022-12-16T01:49:51.579Z,28.33
2022-12-16T01:52:30.461Z,26.73
2022-12-16T01:55:07.241Z,26.90
2022-12-16T01:57:37.141Z,28.07
2022-12-16T02:00:06.244Z,28.40
2022-12-16T02:02:33.836Z,28.53
2022-12-16T02:05:19.227Z,27.93
2022-12-16T02:07:53.811Z,28.77
2022-12-16T02:10:27.879Z,29.70
2022-12-16T02:13:05.888Z,29.03
2022-12-16T02:15:42.931Z,30.17
2022-12-16T02:18:24.531Z,30.47
2022-12-16T02:21:05.817Z,31.23
2022-12-16T02:23:53.203Z,30.87
2022-12-16T02:26:48.048Z,30.07
2022-12-16T02:29:39.236Z,29.23
2022-12-16T02:32:22.175Z,30.00
2022-12-16T02:34:57.531Z,29.90
2022-12-16T02:37:52.970Z,30.07
2022-12-16T02:40:28.056Z,30.83
2022-12-16T02:43:00.372Z,32.00
2022-12-16T02:45:28.937Z,29.50
2022-12-16T02:47:55.440Z,29.03
2022-12-16T02:50:33.733Z,29.73
2022-12-16T02:53:00.757Z,30.37
2022-12-16T02:55:56.410Z,29.13
2022-12-16T02:58:48.573Z,29.77
2022-12-16T03:01:25.269Z,27.37
2022-12-16T03:04:01.559Z,30.07
2022-12-16T03:06:32.201Z,28.93
2022-12-16T03:09:00.544Z,28.63
2022-12-16T03:11:28.623Z,27.40
2022-12-16T03:13:56.196Z,28.93
2022-12-16T03:16:26.349Z,28.60
2022-12-16T03:18:55.512Z,28.90
2022-12-16T03:21:24.593Z,27.50
2022-12-16T03:24:02.015Z,28.00
2022-12-16T03:26:34.412Z,28.43
2022-12-16T03:29:05.169Z,27.90
2022-12-16T03:31:40.150Z,28.40
2022-12-16T03:34:33.657Z,30.77
2022-12-16T03:37:04.109Z,28.70
2022-12-16T03:39:34.025Z,27.43
2022-12-16T03:42:01.384Z,28.50
2022-12-16T03:44:28.162Z,29.03
2022-12-16T03:46:54.694Z,28.47
2022-12-16T03:49:22.868Z,29.10
2022-12-16T03:51:49.480Z,31.67
2022-12-16T03:54:16.094Z,29.57
2022-12-16T03:56:43.109Z,28.30
2022-12-16T03:59:09.593Z,30.23
2022-12-16T04:01:37.684Z,29.47
2022-12-16T04:04:04.300Z,29.83
2022-12-16T04:06:30.949Z,27.73
2022-12-16T04:08:57.357Z,30.53
2022-12-16T04:11:42.588Z,29.67
2022-12-16T04:14:28.159Z,27.80
2022-12-16T04:17:13.848Z,28.30
2022-12-16T04:19:58.989Z,27.50
2022-12-16T04:23:04.169Z,27.30
2022-12-16T04:25:35.906Z,28.57
2022-12-16T04:28:02.598Z,29.37
2022-12-16T04:30:31.128Z,28.23
2022-12-16T04:33:26.558Z,29.63
2022-12-16T04:36:11.851Z,28.70
2022-12-16T04:38:56.964Z,28.70
2022-12-16T04:41:42.465Z,30.80
2022-12-16T04:44:27.623Z,29.93
2022-12-16T04:47:12.622Z,30.83
2022-12-16T04:50:02.340Z,28.17
2022-12-16T04:52:47.648Z,30.10
2022-12-16T04:55:32.916Z,29.27
2022-12-16T04:58:19.676Z,30.33
2022-12-16T05:01:05.843Z,30.20
2022-12-16T05:03:51.940Z,30.30
2022-12-16T05:06:37.553Z,30.80
2022-12-16T05:09:22.989Z,32.27
2022-12-16T05:12:08.064Z,31.23
2022-12-16T05:14:53.543Z,29.73
2022-12-16T05:17:39.099Z,30.00
2022-12-16T05:20:24.565Z,28.77
2022-12-16T05:23:09.691Z,30.97
2022-12-16T05:25:54.561Z,30.73
2022-12-16T05:28:39.775Z,29.73
2022-12-16T05:31:25.334Z,30.07
2022-12-16T05:34:10.652Z,31.63
2022-12-16T05:36:55.686Z,29.50
2022-12-16T05:39:40.778Z,30.07
2022-12-16T05:42:25.899Z,28.67
2022-12-16T05:45:11.396Z,31.17
2022-12-16T05:47:56.241Z,31.17
2022-12-16T05:50:41.532Z,31.67
2022-12-16T05:53:26.672Z,32.87
2022-12-16T05:56:11.721Z,31.40
2022-12-16T05:58:56.730Z,30.70
2022-12-16T06:01:41.944Z,31.93
2022-12-16T06:04:26.919Z,30.80
2022-12-16T06:07:12.631Z,30.63
2022-12-16T06:09:57.739Z,32.57
2022-12-16T06:12:42.854Z,31.97
2022-12-16T06:15:28.587Z,31.47
2022-12-16T06:18:13.669Z,31.63
2022-12-16T06:20:58.831Z,33.77
2022-12-16T06:23:44.239Z,32.37
2022-12-16T06:26:29.289Z,32.03
2022-12-16T06:29:14.746Z,32.77
2022-12-16T06:31:59.760Z,32.57
2022-12-16T06:34:44.933Z,32.83
2022-12-16T06:37:30.105Z,32.50
2022-12-16T06:40:15.530Z,33.60
2022-12-16T06:43:01.208Z,36.20
2022-12-16T06:45:46.324Z,36.30
2022-12-16T06:48:31.778Z,34.93
2022-12-16T06:51:16.797Z,34.83
2022-12-16T06:54:02.051Z,35.23
2022-12-16T06:56:47.296Z,34.87
2022-12-16T06:59:32.573Z,36.67
2022-12-16T07:02:18.158Z,37.23
2022-12-16T07:05:03.752Z,34.77
2022-12-16T07:07:48.960Z,34.70
2022-12-16T07:10:34.221Z,33.47
2022-12-16T07:13:19.753Z,35.30
2022-12-16T07:16:05.949Z,34.67
2022-12-16T07:18:51.124Z,34.83
2022-12-16T07:21:37.925Z,35.10
2022-12-16T07:24:23.107Z,33.90
2022-12-16T07:27:08.366Z,34.43
2022-12-16T07:29:53.351Z,33.07
2022-12-16T07:32:38.471Z,34.17
2022-12-16T07:35:24.060Z,34.33
2022-12-16T07:38:09.111Z,33.77
2022-12-16T07:40:54.399Z,33.57
2022-12-16T07:43:40.105Z,34.80
2022-12-16T07:46:25.515Z,34.40
2022-12-16T07:49:10.789Z,34.33
2022-12-16T07:51:55.901Z,35.20
2022-12-16T07:54:41.200Z,34.17
2022-12-16T07:57:26.365Z,36.63
2022-12-16T08:00:11.500Z,33.30
2022-12-16T08:02:57.084Z,33.70
2022-12-16T08:05:42.250Z,35.27
2022-12-16T08:08:27.420Z,35.27
2022-12-16T08:11:12.442Z,31.93
2022-12-16T08:13:57.377Z,33.10
2022-12-16T08:16:42.495Z,33.50
2022-12-16T08:19:28.573Z,32.47
2022-12-16T08:22:13.769Z,34.90
2022-12-16T08:24:58.740Z,34.67
2022-12-16T08:27:43.931Z,33.50
2022-12-16T08:30:29.570Z,33.83
2022-12-16T08:33:19.283Z,32.83
2022-12-16T08:36:06.021Z,33.73
2022-12-16T08:38:53.045Z,33.60
2022-12-16T08:41:38.206Z,35.43
2022-12-16T08:44:23.888Z,37.93
2022-12-16T08:47:09.073Z,36.23
2022-12-16T08:49:57.724Z,35.53
2022-12-16T08:52:46.627Z,33.63
2022-12-16T08:55:34.711Z,34.50
2022-12-16T08:58:19.863Z,36.20
2022-12-16T09:01:25.039Z,34.77
2022-12-16T09:04:10.226Z,34.27
2022-12-16T09:06:55.590Z,35.60
2022-12-16T09:09:40.619Z,35.67
2022-12-16T09:12:25.879Z,33.80
2022-12-16T09:15:11.028Z,35.60
2022-12-16T09:17:55.985Z,33.10
2022-12-16T09:20:41.317Z,33.87
2022-12-16T09:23:26.747Z,35.43
2022-12-16T09:26:12.058Z,34.87
2022-12-16T09:28:57.263Z,34.77
2022-12-16T09:31:42.664Z,35.17
2022-12-16T09:34:27.927Z,36.10
2022-12-16T09:37:12.927Z,34.47
2022-12-16T09:39:58.355Z,35.40
2022-12-16T09:42:51.695Z,33.77
2022-12-16T09:46:08.213Z,33.90
2022-12-16T09:49:08.793Z,34.67
2022-12-16T09:51:55.608Z,32.80
2022-12-16T09:54:43.938Z,34.20
2022-12-16T09:57:29.111Z,35.57
2022-12-16T10:00:20.312Z,35.43
2022-12-16T10:03:09.243Z,33.97
2022-12-16T10:06:15.849Z,33.57
2022-12-16T10:09:06.403Z,33.83
2022-12-16T10:12:25.704Z,34.20
2022-12-16T10:15:19.699Z,34.13
2022-12-16T10:18:05.381Z,34.47
2022-12-16T10:21:02.248Z,34.93
2022-12-16T10:24:03.491Z,34.37
2022-12-16T10:27:06.487Z,32.83
2022-12-16T10:29:52.985Z,34.30
2022-12-16T10:33:06.263Z,34.77
2022-12-16T10:36:01.199Z,35.27
2022-12-16T10:38:55.279Z,34.27
2022-12-16T10:41:43.576Z,33.27
2022-12-16T10:44:41.677Z,34.43
2022-12-16T10:47:28.789Z,34.87
2022-12-16T10:50:14.410Z,33.07
2022-12-16T10:53:08.771Z,34.00
2022-12-16T10:56:05.813Z,34.13
2022-12-16T10:59:12.178Z,36.17
2022-12-16T11:01:57.372Z,34.30
2022-12-16T11:04:50.711Z,35.17
2022-12-16T11:07:42.982Z,35.63
2022-12-16T11:10:49.808Z,35.03
2022-12-16T11:13:48.173Z,35.27
2022-12-16T11:16:40.545Z,35.40
2022-12-16T11:19:38.272Z,35.77
2022-12-16T11:22:32.763Z,34.27
2022-12-16T11:25:32.283Z,33.63
2022-12-16T11:28:43.763Z,32.27
2022-12-16T11:31:33.102Z,31.13
2022-12-16T11:34:19.123Z,34.57
2022-12-16T11:37:05.518Z,33.43
2022-12-16T11:39:51.067Z,33.73
2022-12-16T11:42:40.863Z,33.07
2022-12-16T11:45:32.163Z,32.00
2022-12-16T11:48:24.309Z,32.07
2022-12-16T11:51:12.534Z,34.47
2022-12-16T11:54:14.353Z,35.57
2022-12-16T11:57:02.413Z,32.83
2022-12-16T12:00:01.423Z,32.47
2022-12-16T12:03:08.497Z,33.70
2022-12-16T12:06:30.544Z,32.10
2022-12-16T12:09:29.532Z,31.40
2022-12-16T12:12:35.450Z,31.43
2022-12-16T12:15:36.040Z,30.13
2022-12-16T12:18:27.197Z,31.90
2022-12-16T12:21:20.068Z,32.93
2022-12-16T12:24:23.462Z,30.50
2022-12-16T12:27:17.798Z,36.33
2022-12-16T12:30:22.597Z,33.47
2022-12-16T12:33:20.172Z,32.97
2022-12-16T12:36:36.397Z,33.40
2022-12-16T12:39:36.991Z,31.17
2022-12-16T12:42:49.830Z,31.60
2022-12-16T12:45:45.436Z,30.60
2022-12-16T12:48:37.095Z,31.13
2022-12-16T12:51:46.893Z,32.37
2022-12-16T12:54:55.860Z,30.50
2022-12-16T12:57:42.308Z,31.97
2022-12-16T13:00:36.395Z,32.87
2022-12-16T13:03:24.625Z,32.27
2022-12-16T13:06:10.718Z,31.90
2022-12-16T13:08:56.478Z,31.90
2022-12-16T13:11:42.918Z,32.27
2022-12-16T13:14:49.713Z,32.77
2022-12-16T13:17:39.045Z,31.97
2022-12-16T13:20:50.747Z,34.03
2022-12-16T13:23:53.361Z,32.77
2022-12-16T13:26:40.553Z,34.10
2022-12-16T13:29:44.710Z,33.93
2022-12-16T13:32:42.641Z,32.10
2022-12-16T13:35:27.596Z,34.67
2022-12-16T13:38:17.311Z,32.60
2022-12-16T13:41:12.587Z,33.60
2022-12-16T13:44:17.700Z,31.67
2022-12-16T13:47:13.187Z,33.67
2022-12-16T13:49:59.343Z,34.37
2022-12-16T13:53:03.285Z,34.87
2022-12-16T13:56:11.491Z,32.90
2022-12-16T13:59:00.162Z,34.47
2022-12-16T14:02:04.138Z,32.43
2022-12-16T14:04:58.385Z,32.87
2022-12-16T14:07:45.148Z,33.93
2022-12-16T14:10:44.000Z,33.17
2022-12-16T14:13:46.606Z,32.83
2022-12-16T14:16:44.419Z,33.53
2022-12-16T14:19:50.868Z,32.87
2022-12-16T14:23:03.160Z,32.87
2022-12-16T14:25:48.559Z,31.00
2022-12-16T14:28:47.543Z,32.10
2022-12-16T14:31:52.197Z,31.63
2022-12-16T14:34:49.335Z,31.97
2022-12-16T14:37:53.174Z,31.93
2022-12-16T14:40:41.614Z,31.13
2022-12-16T14:43:32.735Z,32.60
2022-12-16T14:46:18.478Z,33.03
2022-12-16T14:49:07.478Z,31.53
2022-12-16T14:51:57.227Z,30.60
2022-12-16T14:54:59.531Z,32.40
2022-12-16T14:57:46.864Z,31.33
2022-12-16T15:00:33.816Z,30.70
2022-12-16T15:03:35.395Z,30.97
2022-12-16T15:06:25.893Z,30.10
2022-12-16T15:09:13.864Z,30.07
2022-12-16T15:12:00.647Z,30.53
2022-12-16T15:14:49.148Z,28.97
2022-12-16T15:17:39.187Z,29.23
2022-12-16T15:20:33.978Z,29.97
2022-12-16T15:23:19.591Z,30.43
2022-12-16T15:26:08.676Z,28.20
2022-12-16T15:28:53.842Z,30.53
2022-12-16T15:31:43.988Z,28.60
2022-12-16T15:34:45.711Z,30.23
2022-12-16T15:37:38.664Z,28.40
2022-12-16T15:40:34.088Z,30.57
2022-12-16T15:43:19.375Z,28.40
2022-12-16T15:46:07.994Z,27.57
2022-12-16T15:48:54.773Z,28.30
2022-12-16T15:51:45.863Z,28.73
2022-12-16T15:54:35.361Z,27.23
2022-12-16T15:57:20.849Z,28.67
2022-12-16T16:00:17.170Z,27.57
2022-12-16T16:03:07.462Z,28.93
2022-12-16T16:05:54.484Z,28.60
2022-12-16T16:08:39.965Z,27.30
2022-12-16T16:11:24.967Z,26.60
2022-12-16T16:14:14.149Z,28.93
2022-12-16T16:17:00.029Z,27.83
2022-12-16T16:19:45.750Z,28.63
2022-12-16T16:22:33.645Z,28.37
2022-12-16T16:25:19.100Z,27.73
2022-12-16T16:28:04.786Z,29.43
2022-12-16T16:30:52.991Z,28.33
2022-12-16T16:37:02.169Z,28.80
2022-12-16T16:39:47.314Z,31.73
2022-12-16T16:42:32.385Z,35.13
2022-12-16T16:45:17.273Z,30.00
2022-12-16T16:48:02.267Z,29.27
2022-12-16T16:50:47.250Z,30.17
2022-12-16T16:53:36.022Z,30.73
2022-12-16T16:56:22.281Z,28.87
2022-12-16T16:59:07.357Z,30.93
2022-12-16T17:01:52.801Z,30.43
2022-12-16T17:04:37.914Z,28.50
2022-12-16T17:07:22.899Z,29.30
2022-12-16T17:10:07.992Z,31.10
2022-12-16T17:12:52.861Z,29.27
2022-12-16T17:15:41.147Z,29.63
2022-12-16T17:18:26.956Z,29.73
2022-12-16T17:21:12.615Z,27.90
2022-12-16T17:23:58.370Z,29.63
2022-12-16T17:26:43.585Z,29.90
2022-12-16T17:29:43.285Z,28.50
2022-12-16T17:32:29.013Z,26.37
2022-12-16T17:35:14.054Z,28.90
2022-12-16T17:37:59.237Z,29.00
2022-12-16T17:40:44.385Z,27.27
2022-12-16T17:43:30.002Z,27.57
2022-12-16T17:46:17.959Z,27.30
2022-12-16T17:49:03.117Z,28.30
2022-12-16T17:51:48.741Z,27.93
2022-12-16T17:54:34.393Z,27.00
2022-12-16T17:57:19.603Z,27.30
2022-12-16T18:00:04.770Z,28.33
2022-12-16T18:02:49.961Z,26.20
2022-12-16T18:05:42.410Z,27.00
2022-12-16T18:08:29.177Z,26.87
2022-12-16T18:11:15.523Z,26.60
2022-12-16T18:14:01.304Z,25.27
2022-12-16T18:16:46.756Z,26.50
2022-12-16T18:19:32.897Z,28.50
2022-12-16T18:22:18.217Z,26.63
2022-12-16T18:25:03.591Z,26.37
2022-12-16T18:27:48.693Z,25.40
2022-12-16T18:30:34.310Z,26.23
2022-12-16T18:33:19.908Z,25.37
2022-12-16T18:36:05.037Z,26.93
2022-12-16T18:38:53.785Z,25.53
2022-12-16T18:41:40.695Z,27.13
2022-12-16T18:44:28.701Z,25.03
2022-12-16T18:47:13.887Z,25.60
2022-12-16T18:49:58.811Z,25.53
2022-12-16T18:52:43.823Z,25.60
2022-12-16T18:55:29.397Z,26.87
2022-12-16T18:58:42.621Z,26.07
2022-12-16T19:01:22.195Z,25.90
2022-12-16T19:04:07.519Z,27.17
2022-12-16T19:06:52.712Z,26.83
2022-12-16T19:09:37.992Z,25.30
2022-12-16T19:12:23.458Z,28.50
2022-12-16T19:15:08.320Z,26.90
2022-12-16T19:17:53.456Z,28.07
2022-12-16T19:20:40.257Z,28.03
2022-12-16T19:23:28.187Z,26.90
2022-12-16T19:26:19.951Z,26.27
2022-12-16T19:29:05.191Z,26.07
2022-12-16T19:31:53.979Z,26.17
2022-12-16T19:34:41.532Z,26.37
2022-12-16T19:37:26.786Z,27.97
2022-12-16T19:40:13.536Z,26.77
2022-12-16T19:42:58.812Z,26.07
2022-12-16T19:45:44.086Z,27.07
2022-12-16T19:48:29.184Z,25.30
2022-12-16T19:51:18.237Z,25.77
2022-12-16T19:54:03.806Z,25.77
2022-12-16T19:56:49.779Z,26.13
2022-12-16T19:59:34.871Z,25.50
2022-12-16T20:02:20.409Z,26.07
2022-12-16T20:05:05.978Z,27.03
2022-12-16T20:07:59.160Z,25.00
2022-12-16T20:10:45.959Z,25.13
2022-12-16T20:13:32.629Z,27.10
2022-12-16T20:16:32.845Z,26.07
2022-12-16T20:19:17.879Z,25.70
2022-12-16T20:22:06.940Z,26.13
2022-12-16T20:27:58.620Z,26.10
2022-12-16T20:30:43.528Z,26.17
2022-12-16T20:33:35.251Z,25.63
2022-12-16T20:36:22.456Z,26.00
2022-12-16T20:39:07.556Z,24.90
2022-12-16T20:41:55.994Z,26.50
2022-12-16T20:44:41.551Z,25.93
2022-12-16T20:47:26.478Z,26.10
2022-12-16T20:50:11.686Z,24.87
2022-12-16T20:52:56.815Z,24.73
2022-12-16T20:55:42.053Z,25.37
2022-12-16T20:58:27.608Z,25.60
2022-12-16T21:01:14.189Z,26.23
2022-12-16T21:03:59.694Z,28.10
2022-12-16T21:06:44.653Z,26.90
2022-12-16T21:09:30.040Z,25.83
2022-12-16T21:12:16.024Z,24.00
2022-12-16T21:15:01.531Z,25.27
2022-12-16T21:17:48.465Z,26.30
2022-12-16T21:20:33.750Z,27.93
2022-12-16T21:23:23.215Z,27.40
2022-12-16T21:26:08.187Z,26.67
2022-12-16T21:28:53.512Z,27.30
2022-12-16T21:31:41.420Z,28.60
2022-12-16T21:34:26.242Z,27.20
2022-12-16T21:37:11.105Z,28.97
2022-12-16T21:39:56.575Z,28.67
2022-12-16T21:42:44.057Z,27.10
2022-12-16T21:45:29.735Z,27.80
2022-12-16T21:48:15.243Z,28.87
2022-12-16T21:51:00.328Z,27.37
2022-12-16T21:53:45.942Z,28.60
2022-12-16T21:56:34.707Z,29.13
2022-12-16T21:59:19.663Z,30.67
2022-12-16T22:02:04.654Z,27.03
2022-12-16T22:04:49.988Z,28.10
2022-12-16T22:07:35.503Z,27.27
2022-12-16T22:10:21.543Z,28.47
2022-12-16T22:13:06.463Z,30.10
2022-12-16T22:15:51.703Z,30.57
2022-12-16T22:18:37.277Z,28.10
2022-12-16T22:21:23.632Z,28.80
2022-12-16T22:24:09.432Z,28.00
2022-12-16T22:26:54.373Z,28.00
2022-12-16T22:29:41.787Z,27.60
2022-12-16T22:32:27.102Z,27.60
2022-12-16T22:35:12.254Z,26.73
2022-12-16T22:36:21.173Z,27.03
2022-12-16T22:37:57.706Z,27.67
2022-12-16T22:40:42.600Z,26.80
2022-12-16T22:43:27.636Z,26.93
2022-12-16T22:46:19.754Z,25.07
2022-12-16T22:49:05.467Z,25.03
2022-12-16T22:51:51.501Z,25.43
2022-12-16T22:54:37.468Z,25.47
2022-12-16T22:57:22.507Z,25.77
2022-12-16T23:00:07.947Z,26.20
2022-12-16T23:02:52.929Z,25.20
2022-12-16T23:05:38.629Z,27.63
2022-12-16T23:08:23.987Z,26.43
2022-12-16T23:11:16.106Z,25.57
2022-12-16T23:14:01.342Z,25.87
2022-12-16T23:16:46.816Z,25.67
2022-12-16T23:19:31.867Z,24.63
2022-12-16T23:22:17.058Z,26.57
2022-12-16T23:25:01.994Z,25.70
2022-12-16T23:27:47.243Z,27.17
2022-12-16T23:30:32.611Z,25.43
2022-12-16T23:33:18.404Z,25.30
2022-12-16T23:36:03.874Z,25.67
2022-12-16T23:38:49.267Z,23.60
2022-12-16T23:41:34.494Z,24.30
2022-12-16T23:44:19.403Z,22.87
2022-12-16T23:47:04.289Z,24.63
2022-12-16T23:49:49.659Z,25.20
2022-12-16T23:52:34.881Z,24.43
2022-12-16T23:55:20.279Z,25.13
2022-12-16T23:58:05.595Z,23.87
